sensor_id;sensor_type;location;lat;lon;timestamp;temperature;humidity
11650;DHT22;5881;48.522;7.682;2023-05-25T00:01:06;12.50;1.00
11650;DHT22;5881;48.522;7.682;2023-05-25T00:03:32;12.50;1.00
11650;DHT22;5881;48.522;7.682;2023-05-25T00:05:58;12.40;1.00
11650;DHT22;5881;48.522;7.682;2023-05-25T00:08:25;12.30;1.00
11650;DHT22;5881;48.522;7.682;2023-05-25T00:10:51;12.30;1.00
11650;DHT22;5881;48.522;7.682;2023-05-25T00:13:16;12.20;1.00
11650;DHT22;5881;48.522;7.682;2023-05-25T00:15:42;12.30;1.00
11650;DHT22;5881;48.522;7.682;2023-05-25T00:18:08;12.10;1.00
11650;DHT22;5881;48.522;7.682;2023-05-25T00:20:33;12.00;1.00
11650;DHT22;5881;48.522;7.682;2023-05-25T00:22:59;12.10;1.00
11650;DHT22;5881;48.522;7.682;2023-05-25T00:25:27;11.90;1.00
11650;DHT22;5881;48.522;7.682;2023-05-25T00:27:52;11.90;1.00
11650;DHT22;5881;48.522;7.682;2023-05-25T00:30:18;11.90;1.00
11650;DHT22;5881;48.522;7.682;2023-05-25T00:32:43;11.90;1.00
11650;DHT22;5881;48.522;7.682;2023-05-25T00:35:09;11.80;1.00
11650;DHT22;5881;48.522;7.682;2023-05-25T00:37:35;11.80;1.00
11650;DHT22;5881;48.522;7.682;2023-05-25T00:40:00;11.70;1.00
11650;DHT22;5881;48.522;7.682;2023-05-25T00:42:26;11.70;1.00
11650;DHT22;5881;48.522;7.682;2023-05-25T00:44:53;11.70;1.00
11650;DHT22;5881;48.522;7.682;2023-05-25T00:47:18;11.60;1.00
11650;DHT22;5881;48.522;7.682;2023-05-25T00:49:44;11.50;1.00
11650;DHT22;5881;48.522;7.682;2023-05-25T00:52:11;11.50;1.00
11650;DHT22;5881;48.522;7.682;2023-05-25T00:54:37;11.60;1.00
11650;DHT22;5881;48.522;7.682;2023-05-25T00:57:06;11.60;1.00
11650;DHT22;5881;48.522;7.682;2023-05-25T00:59:47;11.50;1.00
11650;DHT22;5881;48.522;7.682;2023-05-25T01:02:13;11.40;1.00
11650;DHT22;5881;48.522;7.682;2023-05-25T01:04:49;11.50;1.00
11650;DHT22;5881;48.522;7.682;2023-05-25T01:07:19;11.40;1.00
11650;DHT22;5881;48.522;7.682;2023-05-25T01:09:47;11.60;1.00
11650;DHT22;5881;48.522;7.682;2023-05-25T01:12:14;11.40;1.00
11650;DHT22;5881;48.522;7.682;2023-05-25T01:14:41;11.40;1.00
11650;DHT22;5881;48.522;7.682;2023-05-25T01:17:09;11.40;1.00
11650;DHT22;5881;48.522;7.682;2023-05-25T01:19:35;11.40;1.00
11650;DHT22;5881;48.522;7.682;2023-05-25T01:22:31;11.40;1.00
11650;DHT22;5881;48.522;7.682;2023-05-25T01:25:08;11.40;1.00
11650;DHT22;5881;48.522;7.682;2023-05-25T01:27:39;11.40;1.00
11650;DHT22;5881;48.522;7.682;2023-05-25T01:30:12;11.40;1.00
11650;DHT22;5881;48.522;7.682;2023-05-25T01:32:39;11.40;1.00
11650;DHT22;5881;48.522;7.682;2023-05-25T01:35:07;11.30;1.00
11650;DHT22;5881;48.522;7.682;2023-05-25T01:37:35;11.40;1.00
11650;DHT22;5881;48.522;7.682;2023-05-25T01:40:02;11.50;1.00
11650;DHT22;5881;48.522;7.682;2023-05-25T01:42:30;11.40;1.00
11650;DHT22;5881;48.522;7.682;2023-05-25T01:44:55;11.40;1.00
11650;DHT22;5881;48.522;7.682;2023-05-25T01:50:28;11.40;1.00
11650;DHT22;5881;48.522;7.682;2023-05-25T01:53:01;11.30;1.00
11650;DHT22;5881;48.522;7.682;2023-05-25T01:55:31;11.30;1.00
11650;DHT22;5881;48.522;7.682;2023-05-25T01:57:58;11.20;1.00
11650;DHT22;5881;48.522;7.682;2023-05-25T02:00:26;11.20;1.00
11650;DHT22;5881;48.522;7.682;2023-05-25T02:02:55;11.10;1.00
11650;DHT22;5881;48.522;7.682;2023-05-25T02:05:21;11.00;1.00
11650;DHT22;5881;48.522;7.682;2023-05-25T02:07:47;11.00;1.00
11650;DHT22;5881;48.522;7.682;2023-05-25T02:10:13;10.90;1.00
11650;DHT22;5881;48.522;7.682;2023-05-25T02:12:38;10.90;1.00
11650;DHT22;5881;48.522;7.682;2023-05-25T02:15:04;10.90;1.00
11650;DHT22;5881;48.522;7.682;2023-05-25T02:17:30;10.80;1.00
11650;DHT22;5881;48.522;7.682;2023-05-25T02:19:56;10.80;1.00
11650;DHT22;5881;48.522;7.682;2023-05-25T02:22:22;10.80;1.00
11650;DHT22;5881;48.522;7.682;2023-05-25T02:24:48;10.70;1.00
11650;DHT22;5881;48.522;7.682;2023-05-25T02:27:14;10.70;1.00
11650;DHT22;5881;48.522;7.682;2023-05-25T02:29:39;10.70;1.00
11650;DHT22;5881;48.522;7.682;2023-05-25T02:32:05;10.60;1.00
11650;DHT22;5881;48.522;7.682;2023-05-25T02:34:31;10.70;1.00
11650;DHT22;5881;48.522;7.682;2023-05-25T02:36:57;10.60;1.00
11650;DHT22;5881;48.522;7.682;2023-05-25T02:39:23;10.50;1.00
11650;DHT22;5881;48.522;7.682;2023-05-25T02:41:52;10.60;1.00
11650;DHT22;5881;48.522;7.682;2023-05-25T02:44:17;10.50;1.00
11650;DHT22;5881;48.522;7.682;2023-05-25T02:46:43;10.50;1.00
11650;DHT22;5881;48.522;7.682;2023-05-25T02:49:09;10.50;1.00
11650;DHT22;5881;48.522;7.682;2023-05-25T02:51:34;10.40;1.00
11650;DHT22;5881;48.522;7.682;2023-05-25T02:54:01;10.50;1.00
11650;DHT22;5881;48.522;7.682;2023-05-25T02:56:26;10.50;1.00
11650;DHT22;5881;48.522;7.682;2023-05-25T02:58:52;10.50;1.00
11650;DHT22;5881;48.522;7.682;2023-05-25T03:01:18;10.50;1.00
11650;DHT22;5881;48.522;7.682;2023-05-25T03:03:44;10.50;1.00
11650;DHT22;5881;48.522;7.682;2023-05-25T03:06:10;10.50;1.00
11650;DHT22;5881;48.522;7.682;2023-05-25T03:08:37;10.70;1.00
11650;DHT22;5881;48.522;7.682;2023-05-25T03:11:03;10.60;1.00
11650;DHT22;5881;48.522;7.682;2023-05-25T03:13:29;10.60;1.00
11650;DHT22;5881;48.522;7.682;2023-05-25T03:15:55;10.60;1.00
11650;DHT22;5881;48.522;7.682;2023-05-25T03:18:21;10.70;1.00
11650;DHT22;5881;48.522;7.682;2023-05-25T03:20:46;10.70;1.00
11650;DHT22;5881;48.522;7.682;2023-05-25T03:23:12;10.80;1.00
11650;DHT22;5881;48.522;7.682;2023-05-25T03:25:38;10.80;1.00
11650;DHT22;5881;48.522;7.682;2023-05-25T03:28:03;10.70;1.00
11650;DHT22;5881;48.522;7.682;2023-05-25T03:30:29;10.60;1.00
11650;DHT22;5881;48.522;7.682;2023-05-25T03:32:55;10.80;1.00
11650;DHT22;5881;48.522;7.682;2023-05-25T03:35:21;10.70;1.00
11650;DHT22;5881;48.522;7.682;2023-05-25T03:37:47;10.80;1.00
11650;DHT22;5881;48.522;7.682;2023-05-25T03:40:12;10.70;1.00
11650;DHT22;5881;48.522;7.682;2023-05-25T03:42:38;10.70;1.00
11650;DHT22;5881;48.522;7.682;2023-05-25T03:45:05;10.60;1.00
11650;DHT22;5881;48.522;7.682;2023-05-25T03:47:30;10.50;1.00
11650;DHT22;5881;48.522;7.682;2023-05-25T03:49:56;10.60;1.00
11650;DHT22;5881;48.522;7.682;2023-05-25T03:52:22;10.50;1.00
11650;DHT22;5881;48.522;7.682;2023-05-25T03:54:48;10.50;1.00
11650;DHT22;5881;48.522;7.682;2023-05-25T03:57:14;10.50;1.00
11650;DHT22;5881;48.522;7.682;2023-05-25T03:59:39;10.50;1.00
11650;DHT22;5881;48.522;7.682;2023-05-25T04:02:05;10.50;1.00
11650;DHT22;5881;48.522;7.682;2023-05-25T04:04:30;10.50;1.00
11650;DHT22;5881;48.522;7.682;2023-05-25T04:06:56;10.50;1.00
11650;DHT22;5881;48.522;7.682;2023-05-25T04:09:22;10.70;1.00
11650;DHT22;5881;48.522;7.682;2023-05-25T04:11:47;10.70;1.00
11650;DHT22;5881;48.522;7.682;2023-05-25T04:14:13;10.70;1.00
11650;DHT22;5881;48.522;7.682;2023-05-25T04:16:39;10.80;1.00
11650;DHT22;5881;48.522;7.682;2023-05-25T04:19:06;10.90;1.00
11650;DHT22;5881;48.522;7.682;2023-05-25T04:21:31;10.90;1.00
11650;DHT22;5881;48.522;7.682;2023-05-25T04:23:57;10.90;1.00
11650;DHT22;5881;48.522;7.682;2023-05-25T04:26:23;10.90;1.00
11650;DHT22;5881;48.522;7.682;2023-05-25T04:28:51;10.90;1.00
11650;DHT22;5881;48.522;7.682;2023-05-25T04:31:19;10.90;1.00
11650;DHT22;5881;48.522;7.682;2023-05-25T04:33:44;11.00;1.00
11650;DHT22;5881;48.522;7.682;2023-05-25T04:36:10;11.00;1.00
11650;DHT22;5881;48.522;7.682;2023-05-25T04:38:36;11.00;1.00
11650;DHT22;5881;48.522;7.682;2023-05-25T04:41:02;11.10;1.00
11650;DHT22;5881;48.522;7.682;2023-05-25T04:43:28;11.30;1.00
11650;DHT22;5881;48.522;7.682;2023-05-25T04:45:55;11.30;1.00
11650;DHT22;5881;48.522;7.682;2023-05-25T04:48:21;11.40;1.00
11650;DHT22;5881;48.522;7.682;2023-05-25T04:50:48;11.60;1.00
11650;DHT22;5881;48.522;7.682;2023-05-25T04:53:14;12.10;1.00
11650;DHT22;5881;48.522;7.682;2023-05-25T04:55:40;12.60;1.00
11650;DHT22;5881;48.522;7.682;2023-05-25T04:58:05;12.80;1.00
11650;DHT22;5881;48.522;7.682;2023-05-25T05:00:31;13.00;1.00
11650;DHT22;5881;48.522;7.682;2023-05-25T05:02:58;12.80;1.00
11650;DHT22;5881;48.522;7.682;2023-05-25T05:05:25;13.60;1.00
11650;DHT22;5881;48.522;7.682;2023-05-25T05:07:50;13.60;1.00
11650;DHT22;5881;48.522;7.682;2023-05-25T05:10:16;13.80;1.00
11650;DHT22;5881;48.522;7.682;2023-05-25T05:12:42;14.30;1.00
11650;DHT22;5881;48.522;7.682;2023-05-25T05:15:08;14.00;1.00
11650;DHT22;5881;48.522;7.682;2023-05-25T05:17:33;14.50;1.00
11650;DHT22;5881;48.522;7.682;2023-05-25T05:19:59;14.20;1.00
11650;DHT22;5881;48.522;7.682;2023-05-25T05:22:24;14.50;1.00
11650;DHT22;5881;48.522;7.682;2023-05-25T05:24:51;14.80;1.00
11650;DHT22;5881;48.522;7.682;2023-05-25T05:27:18;14.90;1.00
11650;DHT22;5881;48.522;7.682;2023-05-25T05:29:43;15.00;1.00
11650;DHT22;5881;48.522;7.682;2023-05-25T05:32:09;15.30;1.00
11650;DHT22;5881;48.522;7.682;2023-05-25T05:34:35;15.10;1.00
11650;DHT22;5881;48.522;7.682;2023-05-25T05:37:01;14.90;1.00
11650;DHT22;5881;48.522;7.682;2023-05-25T05:39:27;14.80;1.00
11650;DHT22;5881;48.522;7.682;2023-05-25T05:41:53;15.10;1.00
11650;DHT22;5881;48.522;7.682;2023-05-25T05:44:22;15.30;1.00
11650;DHT22;5881;48.522;7.682;2023-05-25T05:46:48;15.80;1.00
11650;DHT22;5881;48.522;7.682;2023-05-25T05:49:14;16.40;1.00
11650;DHT22;5881;48.522;7.682;2023-05-25T05:51:40;16.80;1.00
11650;DHT22;5881;48.522;7.682;2023-05-25T05:54:05;17.40;1.00
11650;DHT22;5881;48.522;7.682;2023-05-25T05:56:31;17.10;1.00
11650;DHT22;5881;48.522;7.682;2023-05-25T05:58:57;17.00;1.00
11650;DHT22;5881;48.522;7.682;2023-05-25T06:01:22;17.50;1.00
11650;DHT22;5881;48.522;7.682;2023-05-25T06:03:48;17.40;1.00
11650;DHT22;5881;48.522;7.682;2023-05-25T06:06:14;18.00;1.00
11650;DHT22;5881;48.522;7.682;2023-05-25T06:08:41;18.30;1.00
11650;DHT22;5881;48.522;7.682;2023-05-25T06:11:07;18.30;1.00
11650;DHT22;5881;48.522;7.682;2023-05-25T06:13:32;18.60;1.00
11650;DHT22;5881;48.522;7.682;2023-05-25T06:15:58;18.40;1.00
11650;DHT22;5881;48.522;7.682;2023-05-25T06:18:24;18.90;1.00
11650;DHT22;5881;48.522;7.682;2023-05-25T06:20:49;18.40;1.00
11650;DHT22;5881;48.522;7.682;2023-05-25T06:23:15;18.50;1.00
11650;DHT22;5881;48.522;7.682;2023-05-25T06:25:43;18.60;1.00
11650;DHT22;5881;48.522;7.682;2023-05-25T06:28:09;19.10;1.00
11650;DHT22;5881;48.522;7.682;2023-05-25T06:30:34;19.10;1.00
11650;DHT22;5881;48.522;7.682;2023-05-25T06:33:00;19.20;1.00
11650;DHT22;5881;48.522;7.682;2023-05-25T06:35:26;18.90;1.00
11650;DHT22;5881;48.522;7.682;2023-05-25T06:37:51;19.10;1.00
11650;DHT22;5881;48.522;7.682;2023-05-25T06:40:17;18.90;1.00
11650;DHT22;5881;48.522;7.682;2023-05-25T06:42:43;19.00;1.00
11650;DHT22;5881;48.522;7.682;2023-05-25T06:45:09;19.00;1.00
11650;DHT22;5881;48.522;7.682;2023-05-25T06:47:36;19.30;1.00
11650;DHT22;5881;48.522;7.682;2023-05-25T06:50:02;18.70;1.00
11650;DHT22;5881;48.522;7.682;2023-05-25T06:52:27;19.20;1.00
11650;DHT22;5881;48.522;7.682;2023-05-25T06:54:54;20.20;1.00
11650;DHT22;5881;48.522;7.682;2023-05-25T06:57:20;21.10;1.00
11650;DHT22;5881;48.522;7.682;2023-05-25T06:59:46;20.60;1.00
11650;DHT22;5881;48.522;7.682;2023-05-25T07:02:11;21.30;1.00
11650;DHT22;5881;48.522;7.682;2023-05-25T07:04:37;20.50;1.00
11650;DHT22;5881;48.522;7.682;2023-05-25T07:07:02;20.00;1.00
11650;DHT22;5881;48.522;7.682;2023-05-25T07:09:28;20.00;1.00
11650;DHT22;5881;48.522;7.682;2023-05-25T07:11:54;21.00;1.00
11650;DHT22;5881;48.522;7.682;2023-05-25T07:14:20;20.90;1.00
11650;DHT22;5881;48.522;7.682;2023-05-25T07:16:45;19.50;1.00
11650;DHT22;5881;48.522;7.682;2023-05-25T07:19:11;20.50;1.00
11650;DHT22;5881;48.522;7.682;2023-05-25T07:21:37;21.10;1.00
11650;DHT22;5881;48.522;7.682;2023-05-25T07:24:03;21.10;1.00
11650;DHT22;5881;48.522;7.682;2023-05-25T07:26:32;20.30;1.00
11650;DHT22;5881;48.522;7.682;2023-05-25T07:28:59;21.30;1.00
11650;DHT22;5881;48.522;7.682;2023-05-25T07:31:25;20.80;1.00
11650;DHT22;5881;48.522;7.682;2023-05-25T07:33:50;21.20;1.00
11650;DHT22;5881;48.522;7.682;2023-05-25T07:36:18;21.70;1.00
11650;DHT22;5881;48.522;7.682;2023-05-25T07:38:45;21.10;1.00
11650;DHT22;5881;48.522;7.682;2023-05-25T07:41:11;21.90;1.00
11650;DHT22;5881;48.522;7.682;2023-05-25T07:43:40;21.30;1.00
11650;DHT22;5881;48.522;7.682;2023-05-25T07:46:06;21.50;1.00
11650;DHT22;5881;48.522;7.682;2023-05-25T07:48:31;21.30;1.00
11650;DHT22;5881;48.522;7.682;2023-05-25T07:50:58;21.70;1.00
11650;DHT22;5881;48.522;7.682;2023-05-25T07:53:23;22.70;1.00
11650;DHT22;5881;48.522;7.682;2023-05-25T07:55:49;22.30;1.00
11650;DHT22;5881;48.522;7.682;2023-05-25T07:58:15;22.50;1.00
11650;DHT22;5881;48.522;7.682;2023-05-25T08:00:41;23.60;1.00
11650;DHT22;5881;48.522;7.682;2023-05-25T08:03:06;23.40;1.00
11650;DHT22;5881;48.522;7.682;2023-05-25T08:05:32;22.90;1.00
11650;DHT22;5881;48.522;7.682;2023-05-25T08:07:58;22.70;1.00
11650;DHT22;5881;48.522;7.682;2023-05-25T08:10:23;22.90;1.00
11650;DHT22;5881;48.522;7.682;2023-05-25T08:12:55;23.80;1.00
11650;DHT22;5881;48.522;7.682;2023-05-25T08:15:21;23.20;1.00
11650;DHT22;5881;48.522;7.682;2023-05-25T08:17:46;24.00;1.00
11650;DHT22;5881;48.522;7.682;2023-05-25T08:20:15;23.90;1.00
11650;DHT22;5881;48.522;7.682;2023-05-25T08:22:41;24.20;1.00
11650;DHT22;5881;48.522;7.682;2023-05-25T08:25:08;23.50;1.00
11650;DHT22;5881;48.522;7.682;2023-05-25T08:27:34;23.50;1.00
11650;DHT22;5881;48.522;7.682;2023-05-25T08:29:59;24.80;1.00
11650;DHT22;5881;48.522;7.682;2023-05-25T08:32:25;24.00;1.00
11650;DHT22;5881;48.522;7.682;2023-05-25T08:34:51;24.20;1.00
11650;DHT22;5881;48.522;7.682;2023-05-25T08:37:17;25.10;1.00
11650;DHT22;5881;48.522;7.682;2023-05-25T08:39:44;24.30;1.00
11650;DHT22;5881;48.522;7.682;2023-05-25T08:42:10;24.30;1.00
11650;DHT22;5881;48.522;7.682;2023-05-25T08:44:36;24.00;1.00
11650;DHT22;5881;48.522;7.682;2023-05-25T08:47:05;23.60;1.00
11650;DHT22;5881;48.522;7.682;2023-05-25T08:49:36;25.40;1.00
11650;DHT22;5881;48.522;7.682;2023-05-25T08:52:03;25.40;1.00
11650;DHT22;5881;48.522;7.682;2023-05-25T08:54:33;25.60;1.00
11650;DHT22;5881;48.522;7.682;2023-05-25T09:00:06;27.00;1.00
11650;DHT22;5881;48.522;7.682;2023-05-25T09:02:59;23.80;1.00
11650;DHT22;5881;48.522;7.682;2023-05-25T09:05:27;23.50;1.00
11650;DHT22;5881;48.522;7.682;2023-05-25T09:07:53;22.20;1.00
11650;DHT22;5881;48.522;7.682;2023-05-25T09:10:23;21.70;1.00
11650;DHT22;5881;48.522;7.682;2023-05-25T09:12:49;21.80;1.00
11650;DHT22;5881;48.522;7.682;2023-05-25T09:15:16;21.70;1.00
11650;DHT22;5881;48.522;7.682;2023-05-25T09:17:41;22.70;1.00
11650;DHT22;5881;48.522;7.682;2023-05-25T09:20:09;24.20;1.00
11650;DHT22;5881;48.522;7.682;2023-05-25T09:22:35;24.50;1.00
11650;DHT22;5881;48.522;7.682;2023-05-25T09:25:05;24.50;1.00
11650;DHT22;5881;48.522;7.682;2023-05-25T09:27:34;25.40;1.00
11650;DHT22;5881;48.522;7.682;2023-05-25T09:30:03;25.20;1.00
11650;DHT22;5881;48.522;7.682;2023-05-25T09:32:28;26.50;1.00
11650;DHT22;5881;48.522;7.682;2023-05-25T09:34:54;26.70;1.00
11650;DHT22;5881;48.522;7.682;2023-05-25T09:37:22;26.80;1.00
11650;DHT22;5881;48.522;7.682;2023-05-25T09:39:50;26.00;1.00
11650;DHT22;5881;48.522;7.682;2023-05-25T09:42:17;25.50;1.00
11650;DHT22;5881;48.522;7.682;2023-05-25T09:44:42;26.30;1.00
11650;DHT22;5881;48.522;7.682;2023-05-25T09:47:08;26.60;1.00
11650;DHT22;5881;48.522;7.682;2023-05-25T09:49:34;26.20;1.00
11650;DHT22;5881;48.522;7.682;2023-05-25T09:52:00;26.70;1.00
11650;DHT22;5881;48.522;7.682;2023-05-25T09:54:26;25.90;1.00
11650;DHT22;5881;48.522;7.682;2023-05-25T09:56:52;26.50;1.00
11650;DHT22;5881;48.522;7.682;2023-05-25T09:59:17;25.30;1.00
11650;DHT22;5881;48.522;7.682;2023-05-25T10:01:43;25.30;1.00
11650;DHT22;5881;48.522;7.682;2023-05-25T10:04:09;25.10;1.00
11650;DHT22;5881;48.522;7.682;2023-05-25T10:06:37;26.30;1.00
11650;DHT22;5881;48.522;7.682;2023-05-25T10:09:05;27.20;1.00
11650;DHT22;5881;48.522;7.682;2023-05-25T10:11:33;27.00;1.00
11650;DHT22;5881;48.522;7.682;2023-05-25T10:14:06;26.40;1.00
11650;DHT22;5881;48.522;7.682;2023-05-25T10:16:33;27.20;1.00
11650;DHT22;5881;48.522;7.682;2023-05-25T10:19:36;26.80;1.00
11650;DHT22;5881;48.522;7.682;2023-05-25T10:22:18;26.70;1.00
11650;DHT22;5881;48.522;7.682;2023-05-25T10:24:55;26.60;1.00
11650;DHT22;5881;48.522;7.682;2023-05-25T10:27:36;27.30;1.00
11650;DHT22;5881;48.522;7.682;2023-05-25T10:30:03;26.80;1.00
11650;DHT22;5881;48.522;7.682;2023-05-25T10:32:29;26.10;1.00
11650;DHT22;5881;48.522;7.682;2023-05-25T10:34:57;26.00;1.00
11650;DHT22;5881;48.522;7.682;2023-05-25T10:37:25;25.00;1.00
11650;DHT22;5881;48.522;7.682;2023-05-25T10:39:53;25.60;1.00
11650;DHT22;5881;48.522;7.682;2023-05-25T10:42:20;26.00;1.00
11650;DHT22;5881;48.522;7.682;2023-05-25T10:44:46;26.40;1.00
11650;DHT22;5881;48.522;7.682;2023-05-25T10:47:14;25.50;1.00
11650;DHT22;5881;48.522;7.682;2023-05-25T10:49:53;26.40;1.00
11650;DHT22;5881;48.522;7.682;2023-05-25T10:52:19;25.90;1.00
11650;DHT22;5881;48.522;7.682;2023-05-25T10:54:46;26.10;1.00
11650;DHT22;5881;48.522;7.682;2023-05-25T10:57:18;26.10;1.00
11650;DHT22;5881;48.522;7.682;2023-05-25T10:59:51;26.20;1.00
11650;DHT22;5881;48.522;7.682;2023-05-25T11:02:20;25.50;1.00
11650;DHT22;5881;48.522;7.682;2023-05-25T11:04:49;25.20;1.00
11650;DHT22;5881;48.522;7.682;2023-05-25T11:07:16;26.50;1.00
11650;DHT22;5881;48.522;7.682;2023-05-25T11:09:54;26.40;1.00
11650;DHT22;5881;48.522;7.682;2023-05-25T11:12:21;25.90;1.00
11650;DHT22;5881;48.522;7.682;2023-05-25T11:15:13;26.00;1.00
11650;DHT22;5881;48.522;7.682;2023-05-25T11:17:59;26.40;1.00
11650;DHT22;5881;48.522;7.682;2023-05-25T11:20:28;26.60;1.00
11650;DHT22;5881;48.522;7.682;2023-05-25T11:22:56;25.30;1.00
11650;DHT22;5881;48.522;7.682;2023-05-25T11:25:38;24.90;1.00
11650;DHT22;5881;48.522;7.682;2023-05-25T11:28:05;25.60;1.00
11650;DHT22;5881;48.522;7.682;2023-05-25T11:30:32;25.90;1.00
11650;DHT22;5881;48.522;7.682;2023-05-25T11:33:03;26.70;1.00
11650;DHT22;5881;48.522;7.682;2023-05-25T11:35:32;25.40;1.00
11650;DHT22;5881;48.522;7.682;2023-05-25T11:38:03;25.50;1.00
11650;DHT22;5881;48.522;7.682;2023-05-25T11:40:30;24.30;1.00
11650;DHT22;5881;48.522;7.682;2023-05-25T11:42:57;24.10;1.00
11650;DHT22;5881;48.522;7.682;2023-05-25T11:45:27;25.00;1.00
11650;DHT22;5881;48.522;7.682;2023-05-25T11:47:53;25.00;1.00
11650;DHT22;5881;48.522;7.682;2023-05-25T11:50:18;25.50;1.00
11650;DHT22;5881;48.522;7.682;2023-05-25T11:52:44;25.20;1.00
11650;DHT22;5881;48.522;7.682;2023-05-25T11:55:11;24.70;1.00
11650;DHT22;5881;48.522;7.682;2023-05-25T11:57:38;24.00;1.00
11650;DHT22;5881;48.522;7.682;2023-05-25T12:00:05;23.70;1.00
11650;DHT22;5881;48.522;7.682;2023-05-25T12:02:37;24.00;1.00
11650;DHT22;5881;48.522;7.682;2023-05-25T12:05:03;24.50;1.00
11650;DHT22;5881;48.522;7.682;2023-05-25T12:07:30;24.40;1.00
11650;DHT22;5881;48.522;7.682;2023-05-25T12:10:10;23.80;1.00
11650;DHT22;5881;48.522;7.682;2023-05-25T12:12:40;23.60;1.00
11650;DHT22;5881;48.522;7.682;2023-05-25T12:15:08;23.60;1.00
11650;DHT22;5881;48.522;7.682;2023-05-25T12:17:34;23.50;1.00
11650;DHT22;5881;48.522;7.682;2023-05-25T12:20:00;23.50;1.00
11650;DHT22;5881;48.522;7.682;2023-05-25T12:22:26;23.80;1.00
11650;DHT22;5881;48.522;7.682;2023-05-25T12:24:52;24.40;1.00
11650;DHT22;5881;48.522;7.682;2023-05-25T12:27:19;24.20;1.00
11650;DHT22;5881;48.522;7.682;2023-05-25T12:29:47;24.30;1.00
11650;DHT22;5881;48.522;7.682;2023-05-25T12:32:12;23.40;1.00
11650;DHT22;5881;48.522;7.682;2023-05-25T12:34:38;23.60;1.00
11650;DHT22;5881;48.522;7.682;2023-05-25T12:37:04;23.40;1.00
11650;DHT22;5881;48.522;7.682;2023-05-25T12:42:02;23.80;1.00
11650;DHT22;5881;48.522;7.682;2023-05-25T12:44:34;23.80;1.00
11650;DHT22;5881;48.522;7.682;2023-05-25T12:49:43;23.60;1.00
11650;DHT22;5881;48.522;7.682;2023-05-25T12:52:09;24.10;1.00
11650;DHT22;5881;48.522;7.682;2023-05-25T12:54:43;24.20;1.00
11650;DHT22;5881;48.522;7.682;2023-05-25T12:57:16;23.60;1.00
11650;DHT22;5881;48.522;7.682;2023-05-25T12:59:45;23.50;1.00
11650;DHT22;5881;48.522;7.682;2023-05-25T13:02:12;23.70;1.00
11650;DHT22;5881;48.522;7.682;2023-05-25T13:04:39;24.20;1.00
11650;DHT22;5881;48.522;7.682;2023-05-25T13:07:07;23.90;1.00
11650;DHT22;5881;48.522;7.682;2023-05-25T13:09:33;23.10;1.00
11650;DHT22;5881;48.522;7.682;2023-05-25T13:11:59;22.80;1.00
11650;DHT22;5881;48.522;7.682;2023-05-25T13:14:27;22.70;1.00
11650;DHT22;5881;48.522;7.682;2023-05-25T13:16:54;23.40;1.00
11650;DHT22;5881;48.522;7.682;2023-05-25T13:19:23;23.40;1.00
11650;DHT22;5881;48.522;7.682;2023-05-25T13:21:49;23.60;1.00
11650;DHT22;5881;48.522;7.682;2023-05-25T13:24:16;23.20;1.00
11650;DHT22;5881;48.522;7.682;2023-05-25T13:26:44;23.00;1.00
11650;DHT22;5881;48.522;7.682;2023-05-25T13:29:10;22.70;1.00
11650;DHT22;5881;48.522;7.682;2023-05-25T13:31:35;22.80;1.00
11650;DHT22;5881;48.522;7.682;2023-05-25T13:34:01;23.30;1.00
11650;DHT22;5881;48.522;7.682;2023-05-25T13:36:28;23.20;1.00
11650;DHT22;5881;48.522;7.682;2023-05-25T13:38:54;23.60;1.00
11650;DHT22;5881;48.522;7.682;2023-05-25T13:41:19;23.70;1.00
11650;DHT22;5881;48.522;7.682;2023-05-25T13:43:45;23.40;1.00
11650;DHT22;5881;48.522;7.682;2023-05-25T13:46:12;23.60;1.00
11650;DHT22;5881;48.522;7.682;2023-05-25T13:48:38;23.70;1.00
11650;DHT22;5881;48.522;7.682;2023-05-25T13:51:05;23.80;1.00
11650;DHT22;5881;48.522;7.682;2023-05-25T13:53:31;23.10;1.00
11650;DHT22;5881;48.522;7.682;2023-05-25T13:55:56;23.40;1.00
11650;DHT22;5881;48.522;7.682;2023-05-25T13:58:22;23.10;1.00
11650;DHT22;5881;48.522;7.682;2023-05-25T14:00:49;23.10;1.00
11650;DHT22;5881;48.522;7.682;2023-05-25T14:03:15;23.20;1.00
11650;DHT22;5881;48.522;7.682;2023-05-25T14:05:41;23.70;1.00
11650;DHT22;5881;48.522;7.682;2023-05-25T14:08:07;23.70;1.00
11650;DHT22;5881;48.522;7.682;2023-05-25T14:10:33;23.90;1.00
11650;DHT22;5881;48.522;7.682;2023-05-25T14:12:58;23.20;1.00
11650;DHT22;5881;48.522;7.682;2023-05-25T14:15:24;23.30;1.00
11650;DHT22;5881;48.522;7.682;2023-05-25T14:17:50;22.90;1.00
11650;DHT22;5881;48.522;7.682;2023-05-25T14:20:15;23.00;1.00
11650;DHT22;5881;48.522;7.682;2023-05-25T14:22:46;23.40;1.00
11650;DHT22;5881;48.522;7.682;2023-05-25T14:25:12;23.30;1.00
11650;DHT22;5881;48.522;7.682;2023-05-25T14:27:38;23.40;1.00
11650;DHT22;5881;48.522;7.682;2023-05-25T14:30:04;23.60;1.00
11650;DHT22;5881;48.522;7.682;2023-05-25T14:32:31;23.30;1.00
11650;DHT22;5881;48.522;7.682;2023-05-25T14:34:57;23.20;1.00
11650;DHT22;5881;48.522;7.682;2023-05-25T14:37:22;22.80;1.00
11650;DHT22;5881;48.522;7.682;2023-05-25T14:39:48;22.60;1.00
11650;DHT22;5881;48.522;7.682;2023-05-25T14:42:14;23.00;1.00
11650;DHT22;5881;48.522;7.682;2023-05-25T14:44:40;23.20;1.00
11650;DHT22;5881;48.522;7.682;2023-05-25T14:47:05;23.30;1.00
11650;DHT22;5881;48.522;7.682;2023-05-25T14:49:31;23.30;1.00
11650;DHT22;5881;48.522;7.682;2023-05-25T14:51:57;23.10;1.00
11650;DHT22;5881;48.522;7.682;2023-05-25T14:54:22;23.10;1.00
11650;DHT22;5881;48.522;7.682;2023-05-25T14:56:48;23.10;1.00
11650;DHT22;5881;48.522;7.682;2023-05-25T14:59:14;22.90;1.00
11650;DHT22;5881;48.522;7.682;2023-05-25T15:01:39;22.70;1.00
11650;DHT22;5881;48.522;7.682;2023-05-25T15:04:05;22.90;1.00
11650;DHT22;5881;48.522;7.682;2023-05-25T15:06:32;22.80;1.00
11650;DHT22;5881;48.522;7.682;2023-05-25T15:08:58;23.00;1.00
11650;DHT22;5881;48.522;7.682;2023-05-25T15:11:24;23.30;1.00
11650;DHT22;5881;48.522;7.682;2023-05-25T15:13:51;23.40;1.00
11650;DHT22;5881;48.522;7.682;2023-05-25T15:16:16;23.20;1.00
11650;DHT22;5881;48.522;7.682;2023-05-25T15:18:43;23.30;1.00
11650;DHT22;5881;48.522;7.682;2023-05-25T15:21:09;23.00;1.00
11650;DHT22;5881;48.522;7.682;2023-05-25T15:23:35;22.90;1.00
11650;DHT22;5881;48.522;7.682;2023-05-25T15:26:01;22.80;1.00
11650;DHT22;5881;48.522;7.682;2023-05-25T15:28:29;22.80;1.00
11650;DHT22;5881;48.522;7.682;2023-05-25T15:30:55;22.90;1.00
11650;DHT22;5881;48.522;7.682;2023-05-25T15:33:20;22.90;1.00
11650;DHT22;5881;48.522;7.682;2023-05-25T15:35:46;23.00;1.00
11650;DHT22;5881;48.522;7.682;2023-05-25T15:38:12;23.00;1.00
11650;DHT22;5881;48.522;7.682;2023-05-25T15:40:37;23.00;1.00
11650;DHT22;5881;48.522;7.682;2023-05-25T15:43:03;23.00;1.00
11650;DHT22;5881;48.522;7.682;2023-05-25T15:45:28;22.90;1.00
11650;DHT22;5881;48.522;7.682;2023-05-25T15:47:54;22.90;1.00
11650;DHT22;5881;48.522;7.682;2023-05-25T15:50:20;22.90;1.00
11650;DHT22;5881;48.522;7.682;2023-05-25T15:52:45;22.90;1.00
11650;DHT22;5881;48.522;7.682;2023-05-25T15:55:11;22.80;1.00
11650;DHT22;5881;48.522;7.682;2023-05-25T15:57:36;22.70;1.00
11650;DHT22;5881;48.522;7.682;2023-05-25T16:00:03;22.70;1.00
11650;DHT22;5881;48.522;7.682;2023-05-25T16:02:30;23.00;1.00
11650;DHT22;5881;48.522;7.682;2023-05-25T16:04:55;23.00;1.00
11650;DHT22;5881;48.522;7.682;2023-05-25T16:07:21;22.80;1.00
11650;DHT22;5881;48.522;7.682;2023-05-25T16:09:46;22.80;1.00
11650;DHT22;5881;48.522;7.682;2023-05-25T16:12:12;22.80;1.00